Time;durP1;ratioP1;P1;durP2;ratioP2;P2;SDS_P1;SDS_P2;PMS_P1;PMS_P2;Temp;Humidity;BMP_temperature;BMP_pressure;BME280_temperature;BME280_humidity;BME280_pressure;Samples;Min_cycle;Max_cycle;Signal;HPM_P1;HPM_P2
2023/01/17 00:01:59;;;;;;;1.23;1.00;;;;;;;4.64;49.89;97918.38;5020863;28;20046;-83
2023/01/17 00:10:06;;;;;;;1.40;1.25;;;;;;;4.58;49.83;97916.34;5029801;28;20075;-83
2023/01/17 00:12:34;;;;;;;2.97;1.10;;;;;;;4.57;49.92;97928.19;5055164;28;20059;-82
2023/01/17 00:15:03;;;;;;;1.67;1.13;;;;;;;4.58;49.71;97913.63;5028445;28;20055;-81
2023/01/17 00:17:32;;;;;;;1.20;0.80;;;;;;;4.57;49.71;97930.88;5024328;28;20041;-82
2023/01/17 01:33:58;;;;;;;1.52;1.13;;;;;;;4.07;50.67;98050.88;5047834;28;20052;-82
2023/01/17 01:36:26;;;;;;;2.88;1.60;;;;;;;4.06;50.36;98062.72;5026528;28;20041;-82
2023/01/17 01:38:55;;;;;;;3.03;1.40;;;;;;;4.08;50.28;98063.41;5025925;28;20040;-83
2023/01/17 01:41:23;;;;;;;2.40;1.30;;;;;;;4.06;50.46;98068.97;5045353;28;20041;-83
2023/01/17 01:43:54;;;;;;;2.90;1.80;;;;;;;4.09;50.41;98070.50;5027421;28;20093;-81
2023/01/17 01:46:27;;;;;;;2.85;1.67;;;;;;;4.10;50.70;98077.63;5046761;28;20838;-83
2023/01/17 01:48:57;;;;;;;2.28;1.60;;;;;;;4.07;50.38;98086.91;5051064;28;20063;-82
2023/01/17 01:51:27;;;;;;;3.30;1.73;;;;;;;4.10;50.27;98093.88;5050250;28;20143;-82
2023/01/17 01:54:00;;;;;;;3.25;1.73;;;;;;;4.10;50.13;98086.59;5055607;28;20061;-83
2023/01/17 01:56:30;;;;;;;3.13;2.08;;;;;;;4.08;50.19;98093.16;5053411;28;20055;-82
2023/01/17 01:59:02;;;;;;;3.35;1.77;;;;;;;4.10;50.18;98110.09;5049247;28;20537;-82
2023/01/17 02:01:35;;;;;;;3.40;1.75;;;;;;;4.08;50.05;98104.00;5043844;28;20037;-83
2023/01/17 02:04:08;;;;;;;2.95;1.42;;;;;;;4.08;50.19;98115.69;5023502;28;20048;-83
2023/01/17 02:06:38;;;;;;;;;;;;;;;3.86;50.50;98110.81;5028213;28;20129;-82
2023/01/17 02:09:09;;;;;;;3.55;1.20;;;;;;;4.04;50.26;98110.75;5043533;28;19928;-82
2023/01/17 02:11:38;;;;;;;2.67;1.48;;;;;;;4.07;50.12;98122.09;5027931;28;20403;-82
2023/01/17 02:14:15;;;;;;;2.45;1.23;;;;;;;4.09;50.04;98119.22;5031036;28;20049;-82
2023/01/17 02:16:54;;;;;;;1.58;1.00;;;;;;;4.09;49.84;98130.91;5047526;28;20076;-83
2023/01/17 02:19:54;;;;;;;2.25;1.35;;;;;;;4.07;49.86;98135.63;5045244;28;20073;-83
2023/01/17 02:22:55;;;;;;;2.28;1.30;;;;;;;4.08;49.91;98139.19;5049569;28;20463;-82
2023/01/17 02:26:04;;;;;;;2.63;1.40;;;;;;;4.06;49.72;98146.59;5047909;28;20150;-84
2023/01/17 02:28:48;;;;;;;2.15;1.50;;;;;;;4.05;49.35;98143.06;5002090;28;20462;-83
2023/01/17 02:31:25;;;;;;;2.20;1.10;;;;;;;4.06;49.28;98143.91;5033049;28;20038;-83
2023/01/17 02:34:00;;;;;;;3.63;1.70;;;;;;;4.05;49.35;98145.78;5011095;28;20049;-83
2023/01/17 02:36:32;;;;;;;2.80;1.13;;;;;;;4.03;49.52;98153.22;5040045;28;20048;-82
2023/01/17 02:39:08;;;;;;;2.30;1.30;;;;;;;4.02;49.27;98156.91;5029500;28;20070;-82
2023/01/17 02:41:40;;;;;;;1.65;1.00;;;;;;;4.01;49.23;98162.47;5032830;28;20042;-83
2023/01/17 02:44:09;;;;;;;2.38;1.20;;;;;;;4.00;49.52;98160.78;5025310;28;20054;-82
2023/01/17 02:46:45;;;;;;;2.58;1.40;;;;;;;3.99;49.04;98161.78;5052690;28;20068;-83
2023/01/17 02:49:15;;;;;;;1.80;1.08;;;;;;;3.97;49.29;98172.78;5048234;28;20117;-83
2023/01/17 02:52:06;;;;;;;2.30;1.30;;;;;;;4.00;48.85;98185.13;5029370;28;20100;-83
2023/01/17 02:55:02;;;;;;;1.70;1.20;;;;;;;3.96;48.85;98186.47;5029062;28;20048;-82
2023/01/17 02:57:46;;;;;;;2.55;1.30;;;;;;;3.97;49.01;98193.59;5049311;28;20049;-83
2023/01/17 03:00:21;;;;;;;2.70;1.50;;;;;;;3.96;49.10;98186.47;5028428;28;20045;-83
2023/01/17 03:02:59;;;;;;;2.63;1.55;;;;;;;3.97;49.08;98188.19;5029280;28;20034;-83
2023/01/17 03:05:32;;;;;;;2.33;1.30;;;;;;;3.95;49.15;98207.28;5030575;28;20781;-83
2023/01/17 03:08:01;;;;;;;3.72;1.40;;;;;;;3.94;49.10;98205.56;5026161;28;20309;-83
2023/01/17 03:10:32;;;;;;;3.13;1.42;;;;;;;3.95;48.90;98201.84;5033179;28;20049;-83
2023/01/17 03:13:02;;;;;;;1.90;1.27;;;;;;;3.94;49.08;98200.16;5051118;28;20048;-82
2023/01/17 03:15:30;;;;;;;3.20;1.35;;;;;;;3.93;49.03;98203.00;5041484;28;20046;-83
2023/01/17 03:18:03;;;;;;;4.70;1.60;;;;;;;3.94;48.93;98197.44;5035141;28;20053;-83
2023/01/17 03:20:31;;;;;;;1.27;0.98;;;;;;;3.91;49.01;98211.28;5040985;28;20160;-82
2023/01/17 03:22:59;;;;;;;1.73;1.08;;;;;;;3.90;48.84;98217.69;5053326;28;20338;-84
2023/01/17 03:25:27;;;;;;;1.55;1.05;;;;;;;3.90;48.96;98222.25;5033377;28;20631;-84
2023/01/17 03:27:56;;;;;;;2.92;1.30;;;;;;;3.87;48.92;98228.84;5053031;28;20048;-82
2023/01/17 03:30:24;;;;;;;1.73;1.00;;;;;;;3.87;48.89;98231.56;5044213;28;20516;-83
2023/01/17 03:32:52;;;;;;;1.55;1.10;;;;;;;3.86;48.88;98231.69;5048165;28;20079;-82
2023/01/17 03:35:21;;;;;;;1.85;1.17;;;;;;;3.85;49.09;98236.25;5049591;28;20502;-85
2023/01/17 03:37:49;;;;;;;3.00;1.27;;;;;;;3.82;49.22;98225.75;5034238;28;20131;-82
2023/01/17 03:40:17;;;;;;;4.22;1.60;;;;;;;3.82;49.03;98236.56;5045523;28;20068;-86
2023/01/17 03:42:45;;;;;;;3.50;1.45;;;;;;;3.82;49.00;98228.44;5030947;28;20042;-83
2023/01/17 03:45:13;;;;;;;1.95;1.23;;;;;;;3.80;49.05;98235.88;5025184;28;20072;-81
2023/01/17 03:47:41;;;;;;;1.92;1.30;;;;;;;3.80;49.01;98235.03;5051481;28;20052;-82
2023/01/17 03:50:11;;;;;;;1.75;1.30;;;;;;;3.79;48.98;98231.47;5057231;28;20078;-83
2023/01/17 03:52:40;;;;;;;3.17;1.67;;;;;;;3.78;48.87;98235.19;5053348;28;20045;-82
2023/01/17 03:55:09;;;;;;;2.78;1.27;;;;;;;3.77;49.07;98238.91;5057149;28;20102;-81
2023/01/17 03:57:37;;;;;;;1.65;1.23;;;;;;;3.76;48.85;98243.44;5039574;28;20041;-83
2023/01/17 04:00:06;;;;;;;1.90;1.13;;;;;;;3.76;48.97;98246.16;5050536;28;20428;-83
2023/01/17 04:02:34;;;;;;;2.05;1.50;;;;;;;3.74;49.13;98253.56;5055776;28;20060;-81
2023/01/17 04:05:02;;;;;;;2.30;1.20;;;;;;;3.74;48.87;98256.28;5030854;28;20054;-81
2023/01/17 04:07:30;;;;;;;2.00;1.10;;;;;;;3.74;48.94;98258.97;5050351;28;20048;-81
2023/01/17 04:09:59;;;;;;;3.50;1.13;;;;;;;3.76;48.73;98261.53;5046724;28;20132;-82
2023/01/17 04:12:27;;;;;;;1.88;1.23;;;;;;;3.74;49.21;98271.66;5049694;28;20577;-81
2023/01/17 04:14:55;;;;;;;2.53;1.20;;;;;;;3.74;48.71;98269.81;5027749;28;20049;-83
2023/01/17 04:17:23;;;;;;;3.53;1.80;;;;;;;3.74;48.73;98275.22;5050387;28;20950;-83
2023/01/17 04:19:51;;;;;;;4.30;1.80;;;;;;;3.75;48.93;98262.53;5057343;28;20114;-83
2023/01/17 04:22:19;;;;;;;3.30;2.00;;;;;;;3.75;48.72;98267.94;5043516;28;20500;-82
2023/01/17 04:24:47;;;;;;;3.70;2.20;;;;;;;3.75;48.70;98271.50;5060531;28;20121;-82
2023/01/17 04:27:16;;;;;;;5.65;2.65;;;;;;;3.75;48.89;98270.66;5032228;28;20037;-82
2023/01/17 04:29:44;;;;;;;4.03;2.65;;;;;;;3.74;48.87;98267.09;5050123;28;20136;-82
2023/01/17 04:32:13;;;;;;;3.95;2.63;;;;;;;3.74;48.82;98271.66;5031939;28;20040;-82
2023/01/17 04:34:41;;;;;;;4.78;2.55;;;;;;;3.75;48.82;98274.22;5047915;28;20037;-82
2023/01/17 04:37:09;;;;;;;4.05;2.50;;;;;;;3.74;49.07;98272.50;5046081;28;20106;-82
2023/01/17 04:39:37;;;;;;;4.45;2.20;;;;;;;3.74;48.93;98277.06;5057229;28;20049;-83
2023/01/17 04:42:05;;;;;;;5.28;2.63;;;;;;;3.74;48.87;98277.91;5047987;28;20056;-82
2023/01/17 04:44:34;;;;;;;4.63;2.47;;;;;;;3.75;48.89;98279.63;5026594;28;20033;-82
2023/01/17 04:47:02;;;;;;;3.95;2.40;;;;;;;3.74;48.72;98279.78;5056596;28;20500;-83
2023/01/17 04:49:30;;;;;;;3.92;2.20;;;;;;;3.74;48.89;98282.47;5057427;28;20033;-82
2023/01/17 04:51:58;;;;;;;4.78;2.25;;;;;;;3.73;49.00;98281.63;5051272;28;20040;-83
2023/01/17 04:54:26;;;;;;;4.95;2.75;;;;;;;3.73;49.00;98281.63;5029732;28;20038;-83
2023/01/17 04:56:54;;;;;;;4.40;2.72;;;;;;;3.74;48.90;98279.78;5032166;28;20306;-83
2023/01/17 04:59:22;;;;;;;7.82;3.40;;;;;;;3.75;48.89;98276.06;5025985;28;20107;-82
2023/01/17 05:01:51;;;;;;;7.25;3.80;;;;;;;3.76;48.79;98275.06;5024675;28;20041;-83
2023/01/17 05:04:19;;;;;;;6.25;3.80;;;;;;;3.74;49.00;98266.25;5055616;28;20049;-81
2023/01/17 05:06:47;;;;;;;5.25;2.97;;;;;;;3.73;48.79;98254.56;5018185;28;20041;-83
2023/01/17 05:09:15;;;;;;;5.78;3.53;;;;;;;3.73;48.86;98267.25;5017357;28;20073;-82
2023/01/17 05:11:42;;;;;;;5.13;3.38;;;;;;;3.72;48.96;98270.97;5031706;28;20505;-83
2023/01/17 05:14:11;;;;;;;4.75;3.05;;;;;;;3.71;48.87;98275.53;5024728;28;20481;-83
2023/01/17 05:16:38;;;;;;;4.85;3.03;;;;;;;3.70;48.76;98279.25;5033577;28;20037;-82
2023/01/17 05:19:08;;;;;;;5.05;2.90;;;;;;;3.71;48.71;98285.50;5034262;28;20064;-83
2023/01/17 05:21:36;;;;;;;5.60;3.33;;;;;;;3.68;48.69;98286.66;5031991;28;20128;-83
2023/01/17 05:24:04;;;;;;;5.70;3.40;;;;;;;3.69;48.76;98298.31;5031171;28;20048;-83
2023/01/17 05:26:32;;;;;;;5.53;3.22;;;;;;;3.68;48.94;98304.72;5036869;28;20536;-84
2023/01/17 05:29:00;;;;;;;4.80;3.60;;;;;;;3.67;48.75;98303.03;5024565;28;20037;-82
2023/01/17 05:31:27;;;;;;;5.45;3.70;;;;;;;3.66;48.61;98306.72;5031840;28;20064;-82
2023/01/17 05:33:55;;;;;;;6.72;3.63;;;;;;;3.65;48.75;98307.72;5040127;28;20124;-82
2023/01/17 05:36:24;;;;;;;5.47;4.13;;;;;;;3.66;48.46;98313.00;5045758;28;20056;-81
2023/01/17 05:38:52;;;;;;;6.05;3.97;;;;;;;3.65;48.66;98310.44;5052592;28;20136;-82
2023/01/17 05:41:20;;;;;;;5.97;3.97;;;;;;;3.63;48.56;98313.31;5050518;28;20515;-81
2023/01/17 05:43:48;;;;;;;6.25;4.20;;;;;;;3.64;48.54;98314.19;5049594;28;20041;-82
2023/01/17 05:46:16;;;;;;;5.95;4.35;;;;;;;3.63;48.41;98310.63;5035473;28;20277;-81
2023/01/17 05:48:47;;;;;;;5.90;4.10;;;;;;;3.62;48.41;98306.22;5040752;28;20041;-81
2023/01/17 05:51:15;;;;;;;6.90;3.78;;;;;;;3.61;48.38;98309.06;5059077;28;20113;-81
2023/01/17 05:53:44;;;;;;;5.57;3.95;;;;;;;3.60;48.44;98318.16;5053905;28;20121;-81
2023/01/17 05:56:12;;;;;;;6.78;4.32;;;;;;;3.58;48.30;98320.16;5064890;28;20049;-82
2023/01/17 05:58:40;;;;;;;6.55;4.03;;;;;;;3.57;48.55;98316.59;5055734;28;20037;-82
2023/01/17 06:01:08;;;;;;;5.93;4.00;;;;;;;3.56;48.42;98323.06;5020650;28;20132;-82
2023/01/17 06:03:36;;;;;;;8.10;4.20;;;;;;;3.56;48.28;98325.75;5014473;28;20605;-82
2023/01/17 06:06:04;;;;;;;7.43;4.47;;;;;;;3.57;48.25;98331.97;5037204;28;20042;-82
2023/01/17 06:08:34;;;;;;;8.13;3.95;;;;;;;3.55;48.37;98332.16;5047114;28;20041;-82
2023/01/17 06:11:08;;;;;;;6.18;3.88;;;;;;;3.56;48.14;98328.47;5033229;28;20499;-82
2023/01/17 06:13:36;;;;;;;6.38;3.78;;;;;;;3.54;48.25;98330.44;5028559;28;20044;-82
2023/01/17 06:16:04;;;;;;;7.80;4.22;;;;;;;3.55;48.35;98332.16;5036171;28;20041;-82
2023/01/17 06:18:32;;;;;;;6.88;3.83;;;;;;;3.54;48.31;98332.31;5028340;28;20049;-82
2023/01/17 06:21:00;;;;;;;6.35;4.00;;;;;;;3.55;48.48;98339.41;5045806;28;20144;-82
2023/01/17 06:23:28;;;;;;;6.85;4.20;;;;;;;3.54;48.34;98338.56;5019507;28;20046;-82
2023/01/17 06:25:56;;;;;;;6.30;3.85;;;;;;;3.54;48.35;98349.38;5029373;28;20060;-82
2023/01/17 06:28:26;;;;;;;6.90;3.90;;;;;;;3.54;48.36;98346.69;5035589;28;20060;-82
2023/01/17 06:30:54;;;;;;;6.40;3.95;;;;;;;3.55;48.69;98352.94;5025232;28;20134;-82
2023/01/17 06:33:23;;;;;;;7.32;4.10;;;;;;;3.55;48.52;98350.25;5014076;28;20049;-82
2023/01/17 06:35:52;;;;;;;7.32;4.00;;;;;;;3.55;48.43;98353.78;5019984;28;20041;-81
2023/01/17 06:38:20;;;;;;;8.52;4.40;;;;;;;3.54;48.56;98362.91;5031478;28;20047;-82
2023/01/17 06:40:48;;;;;;;7.25;4.30;;;;;;;3.54;48.60;98365.59;5045797;28;20079;-83
2023/01/17 06:43:16;;;;;;;7.22;4.05;;;;;;;3.54;48.89;98368.31;5032115;28;20047;-82
2023/01/17 06:45:46;;;;;;;7.28;4.53;;;;;;;3.56;48.51;98368.16;5033013;28;20087;-82
2023/01/17 06:48:17;;;;;;;6.97;4.22;;;;;;;3.52;48.60;98364.91;5029753;28;20148;-83
2023/01/17 06:50:45;;;;;;;7.68;4.45;;;;;;;3.53;48.65;98369.31;5032675;28;20042;-83
2023/01/17 06:53:13;;;;;;;8.32;4.70;;;;;;;3.54;48.36;98364.75;5028883;28;20057;-82
2023/01/17 06:55:42;;;;;;;6.95;4.60;;;;;;;3.53;48.45;98369.31;5047288;28;20128;-82
2023/01/17 06:58:10;;;;;;;6.80;4.50;;;;;;;3.53;48.46;98371.16;5030308;28;20041;-82
2023/01/17 07:00:38;;;;;;;8.18;4.78;;;;;;;3.53;48.41;98371.16;5036221;28;20033;-82
2023/01/17 07:03:17;;;;;;;7.55;4.20;;;;;;;3.55;48.41;98372.72;5049012;28;20136;-82
2023/01/17 07:05:45;;;;;;;6.25;4.55;;;;;;;3.52;48.37;98369.47;5050974;28;20050;-82
2023/01/17 07:08:13;;;;;;;6.72;4.40;;;;;;;3.53;48.44;98376.56;5049056;28;20458;-82
2023/01/17 07:10:44;;;;;;;6.82;4.68;;;;;;;3.54;48.41;98375.56;5045099;28;20044;-83
2023/01/17 07:13:12;;;;;;;7.05;4.43;;;;;;;3.52;48.55;98382.97;5044846;28;20048;-82
2023/01/17 07:15:40;;;;;;;7.68;4.47;;;;;;;3.53;48.52;98387.38;5049325;28;20534;-81
2023/01/17 07:18:09;;;;;;;9.52;5.18;;;;;;;3.53;48.38;98380.13;5038164;28;20045;-82
2023/01/17 07:20:37;;;;;;;6.22;4.40;;;;;;;3.51;48.46;98383.97;5042699;28;20380;-82
2023/01/17 07:23:06;;;;;;;7.95;4.10;;;;;;;3.52;48.64;98383.84;5034161;28;20053;-82
2023/01/17 07:25:33;;;;;;;6.85;4.22;;;;;;;3.50;48.68;98380.41;5039093;28;20045;-82
2023/01/17 07:28:01;;;;;;;8.15;4.60;;;;;;;3.53;48.63;98379.28;5056589;28;20072;-82
2023/01/17 07:30:29;;;;;;;7.70;4.50;;;;;;;3.52;48.48;98378.41;5039927;28;20120;-82
2023/01/17 07:32:57;;;;;;;6.57;4.35;;;;;;;3.53;48.36;98371.16;5073342;28;20448;-82
2023/01/17 07:35:27;;;;;;;7.15;4.70;;;;;;;3.54;48.27;98381.84;5028919;28;20104;-82
2023/01/17 07:37:55;;;;;;;7.72;4.78;;;;;;;3.54;48.78;98378.28;5023389;28;20072;-81
2023/01/17 07:40:24;;;;;;;8.95;4.93;;;;;;;3.53;48.30;98381.97;5032204;28;20041;-82
2023/01/17 07:42:52;;;;;;;7.53;4.53;;;;;;;3.53;48.34;98376.56;5033330;28;20460;-82
2023/01/17 07:45:20;;;;;;;6.88;4.22;;;;;;;3.52;48.38;98383.84;5035001;28;20122;-84
2023/01/17 07:47:49;;;;;;;7.25;4.43;;;;;;;3.52;48.44;98391.09;5036604;28;20049;-81
2023/01/17 07:50:23;;;;;;;8.32;4.75;;;;;;;3.51;48.50;98384.81;5039691;28;20037;-83
2023/01/17 07:52:53;;;;;;;7.10;4.50;;;;;;;3.51;48.28;98392.09;5045305;28;20608;-83
2023/01/17 07:55:21;;;;;;;8.55;4.47;;;;;;;3.49;48.44;98386.81;5029562;28;20045;-80
2023/01/17 07:57:50;;;;;;;7.43;4.55;;;;;;;3.51;48.37;98382.13;5039567;28;20555;-82
2023/01/17 08:00:18;;;;;;;7.57;4.68;;;;;;;3.51;48.23;98383.97;5050893;28;20049;-80
2023/01/17 08:02:46;;;;;;;7.35;4.38;;;;;;;3.51;48.23;98384.81;5066296;28;20049;-80
2023/01/17 08:05:15;;;;;;;8.23;4.30;;;;;;;3.50;48.31;98380.41;5050933;28;20465;-82
2023/01/17 08:07:43;;;;;;;6.35;4.55;;;;;;;3.51;48.20;98383.97;5048768;28;20041;-83
2023/01/17 08:10:16;;;;;;;7.97;4.38;;;;;;;3.52;48.35;98386.53;5035608;28;20535;-82
2023/01/17 08:12:45;;;;;;;6.85;4.50;;;;;;;3.50;48.58;98385.81;5051528;28;20378;-83
2023/01/17 08:15:13;;;;;;;8.38;5.03;;;;;;;3.50;48.53;98388.53;5032593;28;20049;-81
2023/01/17 08:17:45;;;;;;;7.90;4.30;;;;;;;3.53;48.35;98395.50;5048393;28;20087;-82
2023/01/17 08:20:14;;;;;;;8.25;4.65;;;;;;;3.49;48.36;98385.97;5030965;28;20045;-83
2023/01/17 08:22:41;;;;;;;6.57;4.20;;;;;;;3.50;48.37;98385.81;5029726;28;20037;-81
2023/01/17 08:25:10;;;;;;;8.68;4.50;;;;;;;3.51;48.54;98392.09;5055491;28;20542;-82
2023/01/17 08:27:39;;;;;;;9.60;4.60;;;;;;;3.53;48.21;98384.69;5038581;28;20044;-83
2023/01/17 08:30:09;;;;;;;9.30;4.78;;;;;;;3.52;48.36;98389.25;5049174;28;20056;-82
2023/01/17 08:32:39;;;;;;;8.77;4.32;;;;;;;3.51;48.47;98387.53;5035073;28;20068;-80
2023/01/17 08:35:08;;;;;;;8.02;4.28;;;;;;;3.51;48.31;98387.53;5058180;28;20049;-84
2023/01/17 08:37:37;;;;;;;7.07;4.57;;;;;;;3.54;48.51;98389.09;5034334;28;20041;-82
2023/01/17 08:40:07;;;;;;;7.40;4.57;;;;;;;3.55;48.71;98396.22;5050199;28;20068;-82
2023/01/17 08:42:39;;;;;;;7.55;4.70;;;;;;;3.55;48.47;98393.50;5043012;28;20068;-83
2023/01/17 08:45:09;;;;;;;8.35;4.60;;;;;;;3.55;48.71;98391.66;5048830;28;20033;-84
2023/01/17 08:47:37;;;;;;;8.07;4.43;;;;;;;3.56;48.57;98396.06;5032806;28;20049;-81
2023/01/17 08:50:06;;;;;;;8.32;4.80;;;;;;;3.57;48.77;98403.16;5045453;28;20124;-83
2023/01/17 08:52:34;;;;;;;6.70;4.05;;;;;;;3.59;48.54;98397.59;5049435;28;20049;-81
2023/01/17 08:55:04;;;;;;;7.57;4.15;;;;;;;3.59;48.57;98387.63;5050929;28;20036;-82
2023/01/17 08:57:32;;;;;;;7.45;4.18;;;;;;;3.61;48.71;98393.75;5043390;28;20045;-82
2023/01/17 09:00:02;;;;;;;7.68;4.47;;;;;;;3.65;48.66;98395.13;5048436;28;20049;-82
2023/01/17 09:02:58;;;;;;;6.68;4.00;;;;;;;3.65;49.05;98391.56;5046953;28;20399;-80
2023/01/17 09:05:26;;;;;;;7.43;4.82;;;;;;;3.68;48.82;98397.56;5041215;28;20044;-82
2023/01/17 09:07:54;;;;;;;7.40;4.32;;;;;;;3.74;48.87;98393.38;5029688;28;20037;-81
2023/01/17 09:10:23;;;;;;;8.48;4.05;;;;;;;3.77;48.98;98391.25;5048221;28;20076;-82
2023/01/17 09:12:51;;;;;;;6.68;4.10;;;;;;;3.83;48.85;98391.63;5037694;28;20037;-83
2023/01/17 09:15:20;;;;;;;7.22;3.80;;;;;;;3.90;48.86;98390.00;5039266;28;20493;-84
2023/01/17 09:17:48;;;;;;;7.47;4.22;;;;;;;3.95;49.19;98390.44;5057424;28;20048;-83
2023/01/17 09:20:16;;;;;;;7.47;4.15;;;;;;;4.00;49.21;98396.22;5047359;28;20052;-83
2023/01/17 09:22:45;;;;;;;6.15;3.55;;;;;;;4.07;49.18;98402.72;5047567;28;20037;-83
2023/01/17 09:25:13;;;;;;;7.95;4.20;;;;;;;4.15;49.21;98408.22;5033126;28;20060;-83
2023/01/17 09:27:45;;;;;;;10.07;3.75;;;;;;;4.23;48.68;98408.31;5038988;28;20119;-83
2023/01/17 09:30:13;;;;;;;6.88;3.78;;;;;;;4.27;49.11;98406.16;5026259;28;20049;-83
2023/01/17 09:32:43;;;;;;;7.95;4.22;;;;;;;4.35;48.87;98407.09;5042561;28;20049;-83
2023/01/17 09:35:12;;;;;;;5.85;3.40;;;;;;;4.41;48.98;98420.00;5033801;28;20140;-83
2023/01/17 09:37:40;;;;;;;6.35;3.72;;;;;;;4.48;49.06;98415.66;5016768;28;20558;-82
2023/01/17 09:40:14;;;;;;;7.78;3.60;;;;;;;4.57;48.48;98422.00;5038298;28;20055;-82
2023/01/17 09:42:43;;;;;;;8.82;4.32;;;;;;;4.63;49.04;98418.69;5032493;28;20133;-83
2023/01/17 09:45:17;;;;;;;5.85;3.60;;;;;;;4.71;48.63;98421.47;5045193;28;20401;-82
2023/01/17 09:47:49;;;;;;;6.10;3.53;;;;;;;4.78;48.72;98421.69;5024104;28;20046;-82
2023/01/17 09:50:28;;;;;;;6.35;3.40;;;;;;;4.84;48.10;98432.75;5039534;28;20061;-82
2023/01/17 09:53:00;;;;;;;6.05;3.67;;;;;;;4.90;48.46;98428.53;5025630;28;20057;-83
2023/01/17 09:55:34;;;;;;;8.77;4.22;;;;;;;4.94;47.75;98421.81;5044145;28;20054;-82
2023/01/17 09:58:06;;;;;;;7.97;3.65;;;;;;;5.00;48.01;98428.44;5026524;28;20053;-81
2023/01/17 10:00:52;;;;;;;6.23;3.37;;;;;;;5.02;47.32;98429.16;5015811;28;20046;-82
2023/01/17 10:03:32;;;;;;;6.10;3.40;;;;;;;5.03;47.47;98434.44;5030966;28;20450;-82
2023/01/17 10:06:30;;;;;;;6.80;3.28;;;;;;;5.03;47.05;98426.28;5042656;28;20361;-81
2023/01/17 10:09:22;;;;;;;5.68;3.05;;;;;;;5.05;46.87;98429.66;5012867;28;20107;-82
2023/01/17 10:12:04;;;;;;;6.47;3.28;;;;;;;5.07;47.05;98433.09;5030621;28;20041;-80
2023/01/17 10:14:48;;;;;;;6.28;3.35;;;;;;;5.09;46.94;98435.63;5041105;28;20514;-83
2023/01/17 10:17:23;;;;;;;6.22;3.05;;;;;;;5.10;47.27;98440.91;5049361;28;20042;-83
2023/01/17 10:20:09;;;;;;;6.13;3.15;;;;;;;5.13;46.84;98443.28;5024975;28;20095;-83
2023/01/17 10:22:53;;;;;;;6.47;3.42;;;;;;;5.14;46.86;98441.41;5011434;28;20040;-82
2023/01/17 10:25:41;;;;;;;5.35;3.20;;;;;;;5.14;46.33;98442.28;5044209;28;20124;-82
2023/01/17 10:28:15;;;;;;;5.85;3.10;;;;;;;5.14;46.40;98436.84;5058240;28;20060;-82
2023/01/17 10:30:48;;;;;;;8.02;3.25;;;;;;;5.15;46.82;98443.97;5017267;28;20034;-81
2023/01/17 10:33:20;;;;;;;7.85;3.50;;;;;;;5.15;46.58;98438.56;5018966;28;20076;-83
2023/01/17 10:35:58;;;;;;;5.90;2.88;;;;;;;5.17;46.29;98436.59;5026163;28;20140;-82
2023/01/17 10:38:30;;;;;;;6.93;3.50;;;;;;;5.17;46.62;98430.28;5026304;28;20138;-81
2023/01/17 10:41:07;;;;;;;7.55;3.45;;;;;;;5.18;46.26;98430.16;5013132;28;20081;-82
2023/01/17 10:43:46;;;;;;;8.52;3.60;;;;;;;5.23;45.68;98435.94;5018146;28;20389;-83
2023/01/17 10:46:19;;;;;;;7.75;3.47;;;;;;;5.27;46.70;98440.06;5028728;28;20044;-82
2023/01/17 10:48:50;;;;;;;6.57;3.45;;;;;;;5.29;47.14;98426.34;5020668;28;20076;-83
2023/01/17 10:51:41;;;;;;;6.70;3.00;;;;;;;5.38;45.92;98425.34;5045610;28;20504;-82
2023/01/17 10:54:19;;;;;;;9.45;3.35;;;;;;;5.42;46.21;98432.16;5019389;28;20050;-83
2023/01/17 10:56:48;;;;;;;5.85;2.97;;;;;;;5.47;47.29;98424.38;5020887;28;20041;-83
2023/01/17 10:59:22;;;;;;;6.35;2.97;;;;;;;5.54;46.76;98421.91;5050888;28;20132;-83
2023/01/17 11:01:50;;;;;;;6.18;2.97;;;;;;;5.57;47.12;98425.13;5031413;28;20046;-83
2023/01/17 11:04:25;;;;;;;7.93;3.50;;;;;;;5.64;46.89;98418.03;5056350;28;20508;-82
2023/01/17 11:07:31;;;;;;;7.03;3.00;;;;;;;5.68;45.73;98411.28;5059288;28;20057;-83
2023/01/17 11:10:36;;;;;;;6.72;2.97;;;;;;;5.75;45.77;98414.19;5028769;28;20052;-82
2023/01/17 11:13:33;;;;;;;6.38;3.00;;;;;;;5.83;45.46;98407.94;5051720;28;20049;-82
2023/01/17 11:16:19;;;;;;;7.40;3.10;;;;;;;5.90;46.81;98408.97;5023422;28;20045;-83
2023/01/17 11:19:07;;;;;;;5.90;2.95;;;;;;;5.97;45.74;98404.59;5055103;28;20102;-83
2023/01/17 11:21:38;;;;;;;7.10;2.97;;;;;;;6.02;46.32;98400.38;5055488;28;20041;-82
2023/01/17 11:24:17;;;;;;;5.85;3.17;;;;;;;6.10;45.35;98401.41;5039797;28;20399;-80
2023/01/17 11:26:48;;;;;;;5.40;2.95;;;;;;;6.13;46.25;98396.47;5044324;28;20404;-82
2023/01/17 11:29:30;;;;;;;6.70;3.10;;;;;;;6.19;44.64;98400.41;5054932;28;20052;-82
2023/01/17 11:32:16;;;;;;;5.63;2.80;;;;;;;6.19;46.18;98400.41;5037131;28;20455;-83
2023/01/17 11:34:44;;;;;;;5.95;2.97;;;;;;;6.24;46.55;98392.63;5043066;28;20064;-82
2023/01/17 11:37:18;;;;;;;4.75;2.70;;;;;;;6.30;45.22;98398.22;5048608;28;20041;-81
2023/01/17 11:39:47;;;;;;;5.38;3.00;;;;;;;6.33;45.93;98387.03;5033515;28;20048;-80
2023/01/17 11:42:32;;;;;;;6.40;2.70;;;;;;;6.40;44.43;98387.22;5049482;28;20045;-81
2023/01/17 11:45:24;;;;;;;5.38;2.90;;;;;;;6.41;44.17;98387.03;5052052;28;20052;-83
2023/01/17 11:48:12;;;;;;;6.68;2.90;;;;;;;6.47;43.94;98387.38;5035401;28;20048;-82
2023/01/17 11:50:43;;;;;;;6.55;2.90;;;;;;;6.50;45.21;98379.75;5042586;28;20045;-82
2023/01/17 11:53:24;;;;;;;7.55;2.92;;;;;;;6.55;44.22;98381.94;5061677;28;20051;-82
2023/01/17 11:55:56;;;;;;;6.88;2.83;;;;;;;6.55;44.50;98379.22;5050607;28;20044;-83
2023/01/17 11:58:26;;;;;;;6.15;2.92;;;;;;;6.56;44.93;98380.94;5050200;28;20041;-81
2023/01/17 12:01:04;;;;;;;6.93;3.42;;;;;;;6.58;44.40;98379.75;5039016;28;20528;-81
2023/01/17 12:03:51;;;;;;;5.82;3.00;;;;;;;6.58;43.90;98377.03;5046252;28;20045;-81
2023/01/17 12:06:26;;;;;;;5.38;2.83;;;;;;;6.56;44.20;98378.22;5046791;28;20033;-81
2023/01/17 12:09:06;;;;;;;5.43;2.70;;;;;;;6.56;43.32;98370.91;5050556;28;20045;-82
2023/01/17 12:13:59;;;;;;;7.35;3.40;;;;;;;6.54;43.92;98372.94;5032875;28;20132;-82
2023/01/17 12:14:44;;;;;;;5.85;2.90;;;;;;;6.52;44.01;98369.56;5044668;28;20447;-81
2023/01/17 12:17:25;;;;;;;6.35;2.83;;;;;;;6.52;43.25;98369.56;5020120;28;20045;-82
2023/01/17 12:20:00;;;;;;;5.60;2.95;;;;;;;6.51;43.97;98369.72;5030521;28;20409;-80
2023/01/17 12:22:48;;;;;;;6.05;3.00;;;;;;;6.50;43.38;98370.75;5047272;28;20041;-81
2023/01/17 12:25:47;;;;;;;6.32;2.90;;;;;;;6.47;43.34;98363.78;5052105;28;20052;-82
2023/01/17 12:28:41;;;;;;;6.38;3.05;;;;;;;6.48;43.20;98361.91;5051560;28;20139;-82
2023/01/17 12:31:20;;;;;;;6.25;3.13;;;;;;;6.45;43.14;98369.38;5037391;28;20131;-81
2023/01/17 12:33:53;;;;;;;7.07;3.20;;;;;;;6.42;43.36;98367.00;5054330;28;20408;-81
2023/01/17 12:36:33;;;;;;;;;;;;;;;6.17;43.32;98359.00;5052258;28;20136;-81
2023/01/17 12:39:05;;;;;;;5.32;2.90;;;;;;;6.32;43.63;98360.88;5050470;28;19921;-83
2023/01/17 12:41:38;;;;;;;6.03;3.20;;;;;;;6.32;43.77;98362.75;5051234;28;20049;-80
2023/01/17 12:44:10;;;;;;;;;;;;;;;6.07;43.73;98357.28;5045098;28;20057;-82
2023/01/17 12:46:44;;;;;;;5.93;2.80;;;;;;;6.25;43.82;98354.44;5045027;28;20368;-82
2023/01/17 12:49:22;;;;;;;7.00;2.95;;;;;;;6.29;43.43;98352.22;5050368;28;20072;-82
2023/01/17 12:51:56;;;;;;;6.80;2.92;;;;;;;6.28;44.10;98340.50;5052292;28;20046;-82
2023/01/17 12:54:33;;;;;;;6.40;2.95;;;;;;;6.31;43.70;98342.88;5042767;28;20494;-82
2023/01/17 12:57:06;;;;;;;6.28;3.00;;;;;;;6.32;44.03;98344.59;5030771;28;20052;-82
2023/01/17 12:59:42;;;;;;;5.32;2.60;;;;;;;6.33;43.71;98327.28;5039223;28;20477;-82
2023/01/17 13:02:20;;;;;;;5.13;2.70;;;;;;;6.39;43.41;98336.59;5047946;28;20103;-80
2023/01/17 13:04:55;;;;;;;5.63;2.58;;;;;;;6.41;43.52;98335.44;5032987;28;20136;-80
2023/01/17 13:07:36;;;;;;;5.85;2.50;;;;;;;6.44;43.51;98340.53;5054307;28;20289;-81
2023/01/17 13:10:21;;;;;;;7.05;2.95;;;;;;;6.47;42.53;98342.03;5035987;28;20037;-81
2023/01/17 13:12:50;;;;;;;6.38;2.55;;;;;;;6.48;43.50;98340.19;5032665;28;20131;-83
2023/01/17 13:15:25;;;;;;;5.05;2.80;;;;;;;6.49;42.46;98337.28;5048762;28;20045;-82
2023/01/17 13:18:00;;;;;;;6.65;2.65;;;;;;;6.48;43.05;98341.03;5046070;28;20049;-81
2023/01/17 13:20:33;;;;;;;7.95;2.63;;;;;;;6.47;43.54;98336.59;5029604;28;20064;-83
2023/01/17 13:23:08;;;;;;;;;;;;;;;6.24;43.16;98349.16;5038721;28;20339;-81
2023/01/17 13:25:45;;;;;;;4.90;2.28;;;;;;;6.44;42.90;98340.53;5050283;28;19956;-82
2023/01/17 13:28:22;;;;;;;3.55;2.08;;;;;;;6.46;42.96;98340.34;5044128;28;20132;-83
2023/01/17 13:31:19;;;;;;;5.47;2.17;;;;;;;6.48;42.20;98348.31;5051583;28;20091;-83